Time;durP1;ratioP1;P1;durP2;ratioP2;P2;SDS_P1;SDS_P2;PMS_P1;PMS_P2;Temp;Humidity;BMP_temperature;BMP_pressure;BME280_temperature;BME280_humidity;BME280_pressure;Samples;Min_cycle;Max_cycle;Signal;HPM_P1;HPM_P2
2022/07/30 00:00:46;;;;;;;;;;;;;;;20.14;89.01;99650.91;4993198;28;807;-65
2022/07/30 00:03:13;;;;;;;;;;;;;;;19.88;88.62;99658.94;4993142;28;843;-65
2022/07/30 00:05:39;;;;;;;;;;;;;;;19.61;88.50;99656.91;4993140;28;906;-65
2022/07/30 00:08:06;;;;;;;;;;;;;;;19.41;88.89;99649.00;4975226;28;1891;-65
2022/07/30 00:10:32;;;;;;;;;;;;;;;19.32;89.48;99646.97;4975603;28;1154;-65
2022/07/30 00:12:59;;;;;;;;;;;;;;;19.38;90.03;99643.06;4993231;28;804;-64
2022/07/30 00:15:26;;;;;;;;;;;;;;;19.35;89.83;99637.59;4992884;28;915;-65
2022/07/30 00:17:52;;;;;;;;;;;;;;;19.24;90.73;99637.31;4992956;28;819;-65
2022/07/30 00:20:19;;;;;;;;;;;;;;;19.15;91.57;99633.25;4992744;28;879;-65
2022/07/30 00:22:45;;;;;;;;;;;;;;;19.08;92.27;99639.16;4992775;28;863;-65
2022/07/30 00:25:12;;;;;;;;;;;;;;;18.95;92.81;99633.69;4975239;28;1229;-65
2022/07/30 00:27:39;;;;;;;;;;;;;;;18.82;93.79;99632.25;4992694;28;1890;-65
2022/07/30 00:30:06;;;;;;;;;;;;;;;18.90;94.91;99627.94;4992676;28;874;-65
2022/07/30 00:32:33;;;;;;;;;;;;;;;19.14;95.15;99628.91;4992816;28;1016;-65
2022/07/30 00:34:59;;;;;;;;;;;;;;;19.20;94.43;99628.28;4992600;28;918;-65
2022/07/30 00:37:26;;;;;;;;;;;;;;;19.17;94.21;99622.34;4974851;28;1378;-65
2022/07/30 00:39:53;;;;;;;;;;;;;;;19.14;93.83;99623.31;4992571;28;839;-65
2022/07/30 00:42:24;;;;;;;;;;;;;;;19.08;93.77;99624.38;4992492;28;843;-65
2022/07/30 00:44:54;;;;;;;;;;;;;;;18.91;93.81;99623.91;4992479;28;847;-65
2022/07/30 00:47:21;;;;;;;;;;;;;;;18.79;94.23;99625.56;4974919;28;1977;-65
2022/07/30 00:49:47;;;;;;;;;;;;;;;18.83;94.28;99626.22;4992424;28;847;-64
2022/07/30 00:52:14;;;;;;;;;;;;;;;18.86;94.04;99614.09;4992177;28;863;-65
2022/07/30 00:54:40;;;;;;;;;;;;;;;18.84;93.67;99613.78;4992652;28;871;-65
2022/07/30 00:57:07;;;;;;;;;;;;;;;18.83;93.43;99617.81;4992262;28;854;-65
2022/07/30 00:59:34;;;;;;;;;;;;;;;18.83;93.32;99612.22;4992178;28;816;-65
2022/07/30 01:02:02;;;;;;;;;;;;;;;18.80;93.10;99607.56;4992274;28;862;-65
2022/07/30 01:04:29;;;;;;;;;;;;;;;18.75;93.16;99613.72;4974679;28;1375;-64
2022/07/30 01:06:56;;;;;;;;;;;;;;;18.67;93.32;99606.84;4992430;28;850;-65
2022/07/30 01:09:22;;;;;;;;;;;;;;;18.63;93.53;99609.03;4992123;28;1882;-64
2022/07/30 01:11:49;;;;;;;;;;;;;;;18.59;93.63;99606.38;4992165;28;845;-64
2022/07/30 01:14:15;;;;;;;;;;;;;;;18.55;93.82;99608.53;4992034;28;882;-64
2022/07/30 01:16:42;;;;;;;;;;;;;;;18.56;94.14;99610.88;4974664;28;1214;-64
2022/07/30 01:22:18;;;;;;;;;;;;;;;18.55;94.17;99605.75;4996098;28;1207;-64
2022/07/30 01:24:54;;;;;;;;;;;;;;;18.52;94.21;99595.47;4996404;28;800;-65
2022/07/30 01:27:21;;;;;;;;;;;;;;;18.47;94.43;99598.88;4996387;28;1910;-64
2022/07/30 01:29:49;;;;;;;;;;;;;;;18.46;94.59;99603.69;4996782;28;814;-64
2022/07/30 01:32:18;;;;;;;;;;;;;;;18.43;94.83;99603.84;4996142;28;874;-65
2022/07/30 01:34:45;;;;;;;;;;;;;;;18.41;94.83;99607.09;4995980;28;858;-64
2022/07/30 01:37:14;;;;;;;;;;;;;;;18.34;94.86;99602.56;4978403;28;1190;-65
2022/07/30 01:39:41;;;;;;;;;;;;;;;18.32;95.27;99599.44;4996192;28;826;-64
2022/07/30 01:42:09;;;;;;;;;;;;;;;18.31;95.43;99608.31;4995879;28;843;-64
2022/07/30 01:44:38;;;;;;;;;;;;;;;18.29;95.63;99597.56;4995770;28;866;-64
2022/07/30 01:47:05;;;;;;;;;;;;;;;18.30;95.60;99598.34;4995714;28;1972;-64
2022/07/30 01:49:33;;;;;;;;;;;;;;;18.29;95.39;99591.97;4995556;28;839;-64
2022/07/30 01:52:01;;;;;;;;;;;;;;;18.23;95.58;99591.03;4995878;28;816;-64
2022/07/30 01:54:29;;;;;;;;;;;;;;;18.20;95.35;99591.16;4995859;28;808;-64
2022/07/30 01:56:58;;;;;;;;;;;;;;;18.13;95.39;99600.63;4995572;28;859;-64
2022/07/30 01:59:26;;;;;;;;;;;;;;;18.11;95.13;99606.66;4995437;28;784;-64
2022/07/30 02:01:53;;;;;;;;;;;;;;;18.10;95.14;99599.50;4995616;28;839;-64
2022/07/30 02:04:18;;;;;;;;;;;;;;;18.12;94.96;99599.84;4995379;28;886;-64
2022/07/30 02:07:04;;;;;;;;;;;;;;;18.10;94.76;99598.75;4995358;28;830;-65
2022/07/30 02:09:34;;;;;;;;;;;;;;;18.11;94.50;99597.50;4977739;28;1193;-64
2022/07/30 02:15:22;;;;;;;;;;;;;;;18.07;93.74;99594.84;4962021;28;1445;-65
2022/07/30 02:17:59;;;;;;;;;;;;;;;18.06;93.78;99590.47;4995276;28;855;-64
2022/07/30 02:20:27;;;;;;;;;;;;;;;18.06;93.47;99592.50;4995264;28;800;-65
2022/07/30 02:22:57;;;;;;;;;;;;;;;18.01;93.22;99585.50;4995101;28;791;-65
2022/07/30 02:25:25;;;;;;;;;;;;;;;17.98;93.14;99589.19;4994913;28;886;-65
2022/07/30 02:27:54;;;;;;;;;;;;;;;17.94;93.22;99585.75;4991131;28;1882;-65
2022/07/30 02:30:22;;;;;;;;;;;;;;;17.94;92.82;99586.56;4994751;28;886;-65
2022/07/30 02:32:50;;;;;;;;;;;;;;;17.90;92.50;99585.13;4995309;28;932;-65
2022/07/30 02:35:21;;;;;;;;;;;;;;;17.87;92.62;99586.03;4995064;28;879;-64
2022/07/30 02:37:50;;;;;;;;;;;;;;;17.82;92.29;99589.41;4972579;28;1359;-65
2022/07/30 02:40:18;;;;;;;;;;;;;;;17.71;92.40;99579.41;4975316;28;850;-65
2022/07/30 02:42:46;;;;;;;;;;;;;;;17.65;92.41;99583.25;4975268;28;895;-65
2022/07/30 02:45:16;;;;;;;;;;;;;;;17.60;92.50;99586.63;4975158;28;875;-65
2022/07/30 02:47:44;;;;;;;;;;;;;;;17.55;92.51;99579.63;4975122;28;1910;-65
2022/07/30 02:50:11;;;;;;;;;;;;;;;17.48;92.64;99583.44;4974989;28;859;-64
2022/07/30 02:52:39;;;;;;;;;;;;;;;17.43;92.88;99580.47;4975082;28;780;-65
2022/07/30 02:55:07;;;;;;;;;;;;;;;17.40;92.96;99582.16;4975018;28;859;-65
2022/07/30 02:57:35;;;;;;;;;;;;;;;17.40;92.83;99584.19;4957619;28;2004;-65
2022/07/30 03:00:02;;;;;;;;;;;;;;;17.39;92.89;99585.41;4974957;28;863;-64
2022/07/30 03:02:29;;;;;;;;;;;;;;;17.39;93.03;99571.44;4975085;28;839;-65
2022/07/30 03:04:56;;;;;;;;;;;;;;;17.40;92.98;99581.38;4974768;28;808;-65
2022/07/30 03:07:24;;;;;;;;;;;;;;;17.42;92.85;99587.28;4974981;28;1883;-64
2022/07/30 03:09:52;;;;;;;;;;;;;;;17.43;92.80;99586.84;4974786;28;792;-65
2022/07/30 03:12:20;;;;;;;;;;;;;;;17.45;92.85;99591.97;4974677;28;886;-65
2022/07/30 03:14:47;;;;;;;;;;;;;;;17.47;92.62;99584.69;4974785;28;780;-65
2022/07/30 03:17:15;;;;;;;;;;;;;;;17.46;92.67;99601.91;4974520;28;843;-65
2022/07/30 03:19:43;;;;;;;;;;;;;;;17.45;92.86;99600.34;4974482;28;1040;-65
2022/07/30 03:22:11;;;;;;;;;;;;;;;17.42;92.77;99593.66;4974847;28;795;-65
2022/07/30 03:24:39;;;;;;;;;;;;;;;17.42;92.80;99595.69;4974605;28;831;-64
2022/07/30 03:27:06;;;;;;;;;;;;;;;17.42;92.64;99602.03;4974539;28;874;-64
2022/07/30 03:29:33;;;;;;;;;;;;;;;17.41;92.52;99594.91;4974474;28;866;-64
2022/07/30 03:32:01;;;;;;;;;;;;;;;17.44;92.66;99599.56;4974273;28;889;-65
2022/07/30 03:34:30;;;;;;;;;;;;;;;17.48;92.52;99605.81;4974390;28;847;-64
2022/07/30 03:36:58;;;;;;;;;;;;;;;17.53;92.20;99605.22;4974535;28;800;-64
2022/07/30 03:39:26;;;;;;;;;;;;;;;17.59;92.27;99604.66;4991491;28;1293;-64
2022/07/30 03:41:53;;;;;;;;;;;;;;;17.67;91.96;99609.50;4993094;28;796;-65
2022/07/30 03:44:21;;;;;;;;;;;;;;;17.76;91.66;99606.75;4993700;28;819;-65
2022/07/30 03:46:51;;;;;;;;;;;;;;;17.83;91.50;99605.75;4993530;28;855;-64
2022/07/30 03:49:18;;;;;;;;;;;;;;;17.93;91.41;99612.94;4993828;28;1910;-65
2022/07/30 03:51:45;;;;;;;;;;;;;;;18.06;91.06;99612.84;4993447;28;811;-64
2022/07/30 03:54:13;;;;;;;;;;;;;;;18.19;90.64;99609.19;4993351;28;780;-65
2022/07/30 03:56:40;;;;;;;;;;;;;;;18.31;90.32;99608.31;4993363;28;832;-64
2022/07/30 03:59:06;;;;;;;;;;;;;;;18.40;90.04;99604.78;4975727;28;1221;-64
2022/07/30 04:01:33;;;;;;;;;;;;;;;18.48;89.58;99606.81;4993250;28;803;-64
2022/07/30 04:04:06;;;;;;;;;;;;;;;18.57;89.41;99601.25;4993459;28;863;-64
2022/07/30 04:06:38;;;;;;;;;;;;;;;18.71;89.00;99601.88;4993063;28;863;-64
2022/07/30 04:09:06;;;;;;;;;;;;;;;18.84;88.71;99601.78;4993285;28;1945;-64
2022/07/30 04:11:32;;;;;;;;;;;;;;;18.95;88.04;99594.50;4993200;28;930;-64
2022/07/30 04:13:59;;;;;;;;;;;;;;;19.08;87.65;99601.97;4993124;28;890;-64
2022/07/30 04:16:44;;;;;;;;;;;;;;;19.23;87.42;99596.53;4992891;28;831;-64
2022/07/30 04:19:17;;;;;;;;;;;;;;;19.40;86.90;99591.41;4992947;28;819;-64
2022/07/30 04:21:46;;;;;;;;;;;;;;;19.57;86.53;99598.22;4975439;28;1226;-64
2022/07/30 04:24:13;;;;;;;;;;;;;;;19.72;86.20;99599.16;4992828;28;851;-64
2022/07/30 04:26:40;;;;;;;;;;;;;;;19.83;85.18;99607.06;4992785;28;847;-64
2022/07/30 04:29:08;;;;;;;;;;;;;;;19.97;84.85;99597.19;4992664;28;1883;-64
2022/07/30 04:31:35;;;;;;;;;;;;;;;20.10;84.09;99600.59;4992726;28;933;-64
2022/07/30 04:34:03;;;;;;;;;;;;;;;20.24;83.35;99599.13;4993064;28;962;-64
2022/07/30 04:36:29;;;;;;;;;;;;;;;20.39;82.88;99611.22;4992542;28;800;-64
2022/07/30 04:38:56;;;;;;;;;;;;;;;20.55;82.12;99603.69;4992466;28;1450;-64
2022/07/30 04:41:23;;;;;;;;;;;;;;;20.69;81.09;99607.84;4992574;28;800;-64
2022/07/30 04:43:50;;;;;;;;;;;;;;;20.76;80.79;99596.22;4992409;28;839;-64
2022/07/30 04:46:16;;;;;;;;;;;;;;;20.91;80.30;99602.72;4992461;28;828;-64
2022/07/30 04:48:43;;;;;;;;;;;;;;;21.05;79.60;99603.22;4992353;28;1977;-64
2022/07/30 04:51:16;;;;;;;;;;;;;;;21.25;78.94;99603.41;4992406;28;882;-64
2022/07/30 04:53:44;;;;;;;;;;;;;;;21.34;78.21;99603.31;4991704;28;808;-64
2022/07/30 04:56:12;;;;;;;;;;;;;;;21.48;78.07;99598.97;4992237;28;831;-64
2022/07/30 04:58:40;;;;;;;;;;;;;;;21.85;77.07;99595.81;4992237;28;867;-64
2022/07/30 05:01:08;;;;;;;;;;;;;;;22.34;75.18;99587.91;4992283;28;851;-64
2022/07/30 05:03:36;;;;;;;;;;;;;;;22.49;74.64;99588.66;4992211;28;871;-64
2022/07/30 05:06:04;;;;;;;;;;;;;;;22.50;74.80;99592.25;4992219;28;926;-64
2022/07/30 05:08:31;;;;;;;;;;;;;;;22.58;75.06;99582.88;4974666;28;1987;-64
2022/07/30 05:10:58;;;;;;;;;;;;;;;22.72;74.85;99586.91;4992099;28;815;-64
2022/07/30 05:13:25;;;;;;;;;;;;;;;22.84;74.55;99582.19;4992229;28;806;-64
2022/07/30 05:15:51;;;;;;;;;;;;;;;22.94;73.98;99592.06;4992050;28;811;-64
2022/07/30 05:18:19;;;;;;;;;;;;;;;23.05;73.75;99604.78;4992114;28;792;-64
2022/07/30 05:20:45;;;;;;;;;;;;;;;23.24;73.77;99603.22;4992238;28;905;-63
2022/07/30 05:23:12;;;;;;;;;;;;;;;23.44;73.01;99600.34;4992079;28;874;-64
2022/07/30 05:25:39;;;;;;;;;;;;;;;23.68;72.54;99596.47;4992038;28;847;-64
2022/07/30 05:28:06;;;;;;;;;;;;;;;23.96;71.57;99604.44;4991995;28;1953;-63
2022/07/30 05:30:33;;;;;;;;;;;;;;;24.15;70.95;99602.78;4992030;28;827;-63
2022/07/30 05:32:59;;;;;;;;;;;;;;;24.31;70.20;99609.09;4992274;28;906;-63
2022/07/30 05:35:26;;;;;;;;;;;;;;;24.45;69.78;99610.97;4991950;28;847;-63
2022/07/30 05:37:53;;;;;;;;;;;;;;;24.56;69.37;99610.28;4991559;28;1436;-63
2022/07/30 05:40:20;;;;;;;;;;;;;;;24.74;68.69;99604.25;4991999;28;827;-63
2022/07/30 05:42:47;;;;;;;;;;;;;;;24.97;67.92;99605.13;4991882;28;823;-63
2022/07/30 05:45:14;;;;;;;;;;;;;;;25.62;65.27;99600.72;4991847;28;811;-63
2022/07/30 05:47:41;;;;;;;;;;;;;;;26.60;61.52;99601.75;4991761;28;1975;-63
2022/07/30 05:50:08;;;;;;;;;;;;;;;27.65;58.30;99597.44;4974354;28;1341;-63
2022/07/30 05:52:34;;;;;;;;;;;;;;;28.46;55.16;99591.34;4991840;28;846;-63
2022/07/30 05:55:01;;;;;;;;;;;;;;;29.31;52.76;99591.16;4991761;28;854;-63
2022/07/30 05:57:27;;;;;;;;;;;;;;;30.16;50.44;99584.16;4991790;28;903;-63
2022/07/30 05:59:54;;;;;;;;;;;;;;;31.11;48.03;99585.22;4991720;28;882;-63
2022/07/30 06:02:21;;;;;;;;;;;;;;;31.96;46.01;99586.13;4991681;28;808;-63
2022/07/30 06:04:47;;;;;;;;;;;;;;;32.45;43.89;99587.47;4991688;28;859;-63
2022/07/30 06:07:14;;;;;;;;;;;;;;;33.01;42.57;99593.72;4995214;28;1941;-63
2022/07/30 06:09:41;;;;;;;;;;;;;;;33.27;41.69;99590.66;4995254;28;862;-63
2022/07/30 06:12:07;;;;;;;;;;;;;;;33.51;40.77;99595.09;4995297;28;831;-63
2022/07/30 06:14:34;;;;;;;;;;;;;;;34.05;40.20;99595.19;4977651;28;1162;-63
2022/07/30 06:17:01;;;;;;;;;;;;;;;34.32;39.43;99578.41;4995142;28;894;-63
2022/07/30 06:19:27;;;;;;;;;;;;;;;34.55;38.60;99584.09;4977611;28;1190;-63
2022/07/30 06:21:54;;;;;;;;;;;;;;;34.72;38.34;99579.91;4995054;28;823;-63
2022/07/30 06:24:21;;;;;;;;;;;;;;;35.13;37.68;99575.75;4995070;28;875;-63
2022/07/30 06:26:48;;;;;;;;;;;;;;;35.26;37.51;99582.56;4995124;28;859;-63
2022/07/30 06:29:15;;;;;;;;;;;;;;;35.34;37.14;99586.19;4994895;28;1950;-63
2022/07/30 06:31:41;;;;;;;;;;;;;;;35.33;36.95;99596.13;4994895;28;828;-63
2022/07/30 06:34:08;;;;;;;;;;;;;;;35.48;36.46;99587.41;4995317;28;1240;-62
2022/07/30 06:36:34;;;;;;;;;;;;;;;35.76;36.17;99586.34;4994899;28;875;-63
2022/07/30 06:39:01;;;;;;;;;;;;;;;36.05;35.76;99585.91;4994750;28;1424;-63
2022/07/30 06:41:27;;;;;;;;;;;;;;;36.00;35.50;99589.78;4994908;28;811;-63
2022/07/30 06:43:54;;;;;;;;;;;;;;;36.23;35.11;99588.84;4994650;28;847;-63
2022/07/30 06:46:21;;;;;;;;;;;;;;;36.42;34.70;99585.41;4994643;28;800;-63
2022/07/30 06:48:48;;;;;;;;;;;;;;;36.81;33.76;99582.91;4994557;28;1972;-63
2022/07/30 06:51:14;;;;;;;;;;;;;;;37.06;33.34;99580.69;4994505;28;832;-63
2022/07/30 06:53:41;;;;;;;;;;;;;;;36.79;33.44;99563.38;4994548;28;859;-63
2022/07/30 06:56:08;;;;;;;;;;;;;;;36.68;33.63;99567.53;4994508;28;855;-63
2022/07/30 06:58:34;;;;;;;;;;;;;;;36.90;33.45;99568.59;4994434;28;811;-63
2022/07/30 07:01:00;;;;;;;;;;;;;;;37.23;32.81;99571.28;4994424;28;879;-63
2022/07/30 07:03:27;;;;;;;;;;;;;;;37.94;32.41;99570.47;4994480;28;855;-63
2022/07/30 07:05:54;;;;;;;;;;;;;;;38.42;31.77;99574.09;4994296;28;811;-63
2022/07/30 07:08:20;;;;;;;;;;;;;;;38.52;30.97;99569.88;4994243;28;1951;-63
2022/07/30 07:10:47;;;;;;;;;;;;;;;38.49;31.07;99564.50;4994239;28;799;-64
2022/07/30 07:13:14;;;;;;;;;;;;;;;38.78;30.66;99558.78;4994200;28;862;-64
2022/07/30 07:15:41;;;;;;;;;;;;;;;38.89;30.57;99558.16;4994065;28;819;-63
2022/07/30 07:18:08;;;;;;;;;;;;;;;38.73;30.34;99556.94;4993171;28;891;-64
2022/07/30 07:20:34;;;;;;;;;;;;;;;39.14;29.41;99554.97;4976623;28;1277;-64
2022/07/30 07:23:01;;;;;;;;;;;;;;;39.60;29.26;99551.06;4994001;28;842;-64
2022/07/30 07:25:28;;;;;;;;;;;;;;;39.71;28.22;99540.97;4993950;28;847;-64
2022/07/30 07:27:55;;;;;;;;;;;;;;;39.19;28.98;99550.25;4993834;28;1886;-64
2022/07/30 07:30:21;;;;;;;;;;;;;;;39.29;29.15;99539.41;4994015;28;787;-64
2022/07/30 07:32:48;;;;;;;;;;;;;;;39.45;29.16;99539.84;4994114;28;1033;-64
2022/07/30 07:35:15;;;;;;;;;;;;;;;39.69;28.66;99540.84;4993758;28;807;-63
2022/07/30 07:37:42;;;;;;;;;;;;;;;39.40;28.22;99541.69;4976233;28;887;-64
2022/07/30 07:40:12;;;;;;;;;;;;;;;39.27;28.77;99539.28;4993532;28;1294;-64
2022/07/30 07:42:39;;;;;;;;;;;;;;;39.60;27.60;99538.72;4993734;28;815;-64
2022/07/30 07:45:06;;;;;;;;;;;;;;;39.35;28.31;99536.97;4993411;28;874;-64
2022/07/30 07:47:41;;;;;;;;;;;;;;;39.79;27.45;99529.94;4993517;28;1918;-65
2022/07/30 07:50:08;;;;;;;;;;;;;;;39.08;29.25;99540.06;4993665;28;804;-63
2022/07/30 07:52:34;;;;;;;;;;;;;;;38.85;29.27;99536.88;4993480;28;843;-64
2022/07/30 07:55:01;;;;;;;;;;;;;;;38.91;29.02;99538.09;4993320;28;857;-64
2022/07/30 07:57:28;;;;;;;;;;;;;;;38.92;28.96;99536.75;4993338;28;847;-64
2022/07/30 07:59:55;;;;;;;;;;;;;;;39.41;28.65;99533.78;4993262;28;812;-64
2022/07/30 08:02:21;;;;;;;;;;;;;;;39.94;28.07;99525.94;4993202;28;945;-64
2022/07/30 08:04:48;;;;;;;;;;;;;;;40.22;27.37;99524.25;4993491;28;859;-64
2022/07/30 08:07:15;;;;;;;;;;;;;;;39.96;27.37;99528.97;4993171;28;867;-64
2022/07/30 08:09:41;;;;;;;;;;;;;;;40.21;27.60;99530.66;4993147;28;1953;-64
2022/07/30 08:12:08;;;;;;;;;;;;;;;40.33;26.55;99519.94;4993210;28;811;-65
2022/07/30 08:14:34;;;;;;;;;;;;;;;40.11;26.75;99524.94;4992919;28;824;-64
2022/07/30 08:17:01;;;;;;;;;;;;;;;39.85;27.14;99517.34;4992924;28;839;-64
2022/07/30 08:19:28;;;;;;;;;;;;;;;39.63;27.59;99514.38;4992939;28;791;-64
2022/07/30 08:21:58;;;;;;;;;;;;;;;39.98;26.84;99517.53;4992813;28;811;-64
2022/07/30 08:24:24;;;;;;;;;;;;;;;39.52;27.11;99515.78;4992859;28;835;-64
2022/07/30 08:26:51;;;;;;;;;;;;;;;39.06;27.23;99516.06;4992716;28;870;-64
2022/07/30 08:29:18;;;;;;;;;;;;;;;38.82;27.56;99521.53;4975105;28;1886;-64
2022/07/30 08:31:45;;;;;;;;;;;;;;;39.19;27.34;99516.31;4992971;28;863;-64
2022/07/30 08:34:12;;;;;;;;;;;;;;;39.63;26.46;99510.72;4993116;28;1037;-65
2022/07/30 08:36:38;;;;;;;;;;;;;;;39.58;26.66;99512.56;4992610;28;815;-64
2022/07/30 08:39:05;;;;;;;;;;;;;;;39.54;26.86;99507.25;4992380;28;1349;-63
2022/07/30 08:41:32;;;;;;;;;;;;;;;39.31;27.51;99507.03;4975110;28;1328;-64
2022/07/30 08:44:00;;;;;;;;;;;;;;;38.56;27.75;99511.69;4992431;28;804;-65
2022/07/30 08:46:28;;;;;;;;;;;;;;;39.19;27.73;99504.00;4992463;28;851;-64
2022/07/30 08:48:55;;;;;;;;;;;;;;;39.81;27.38;99500.41;4992406;28;1919;-64
2022/07/30 08:51:23;;;;;;;;;;;;;;;38.77;27.78;99513.94;4992456;28;807;-64
2022/07/30 08:53:49;;;;;;;;;;;;;;;36.52;29.55;99505.69;4992292;28;866;-63
2022/07/30 08:56:16;;;;;;;;;;;;;;;35.87;29.85;99512.44;4992424;28;792;-65
2022/07/30 08:58:44;;;;;;;;;;;;;;;36.44;29.13;99508.66;4992387;28;870;-65
2022/07/30 09:01:11;;;;;;;;;;;;;;;37.34;29.16;99500.81;4974789;28;846;-64
2022/07/30 09:03:38;;;;;;;;;;;;;;;38.04;28.22;99506.28;4992274;28;847;-64
2022/07/30 09:06:07;;;;;;;;;;;;;;;38.23;27.25;99502.69;4992260;28;850;-64
2022/07/30 09:08:34;;;;;;;;;;;;;;;38.34;27.69;99496.28;4992194;28;1886;-64
2022/07/30 09:11:00;;;;;;;;;;;;;;;38.52;27.38;99488.28;4992190;28;878;-64
2022/07/30 09:13:33;;;;;;;;;;;;;;;38.30;26.82;99495.97;4992091;28;862;-64
2022/07/30 09:16:00;;;;;;;;;;;;;;;37.13;28.65;99481.94;4992477;28;807;-64
2022/07/30 09:18:35;;;;;;;;;;;;;;;36.74;28.97;99478.00;4992180;28;879;-63
2022/07/30 09:21:24;;;;;;;;;;;;;;;37.33;28.80;99485.66;4992095;28;760;-63
2022/07/30 09:24:01;;;;;;;;;;;;;;;36.29;29.78;99491.56;4992126;28;858;-65
2022/07/30 09:26:28;;;;;;;;;;;;;;;35.77;29.47;99486.47;4992078;28;878;-64
2022/07/30 09:29:14;;;;;;;;;;;;;;;36.43;28.70;99478.38;4991935;28;1886;-64
2022/07/30 09:32:08;;;;;;;;;;;;;;;36.93;28.02;99474.50;4992046;28;851;-63
2022/07/30 09:34:36;;;;;;;;;;;;;;;37.08;27.98;99476.41;4992132;28;854;-64
2022/07/30 09:37:09;;;;;;;;;;;;;;;37.62;27.67;99476.41;4992107;28;823;-64
2022/07/30 09:39:41;;;;;;;;;;;;;;;37.97;27.03;99473.31;4991733;28;1465;-64
2022/07/30 09:42:20;;;;;;;;;;;;;;;37.96;26.72;99475.44;4995644;28;844;-62
2022/07/30 09:44:47;;;;;;;;;;;;;;;37.79;26.50;99470.53;4996069;28;792;-65
2022/07/30 09:47:32;;;;;;;;;;;;;;;37.90;27.22;99480.72;4996073;28;808;-64
2022/07/30 09:50:05;;;;;;;;;;;;;;;37.79;27.64;99466.91;4995808;28;890;-64
2022/07/30 09:52:32;;;;;;;;;;;;;;;37.61;27.78;99474.13;4995675;28;808;-64
2022/07/30 09:54:59;;;;;;;;;;;;;;;37.44;27.53;99472.81;4995614;28;846;-65
2022/07/30 09:57:26;;;;;;;;;;;;;;;37.38;27.63;99475.22;4995510;28;823;-64
2022/07/30 09:59:53;;;;;;;;;;;;;;;37.49;27.15;99468.13;4995579;28;799;-64
2022/07/30 10:02:29;;;;;;;;;;;;;;;37.65;28.03;99468.69;4995469;28;838;-64
2022/07/30 10:33:24;;;;;;;;;;;;;;;35.45;31.28;99456.44;5581534;23;1540;-64
2022/07/30 10:35:50;;;;;;;;;;;;;;;35.09;31.31;99454.75;4994921;28;827;-64
2022/07/30 10:38:19;;;;;;;;;;;;;;;34.65;31.73;99446.53;4994946;28;838;-64
2022/07/30 10:41:00;;;;;;;;;;;;;;;34.32;32.22;99443.59;4994782;28;815;-64
2022/07/30 10:43:27;;;;;;;;;;;;;;;34.10;33.11;99438.66;4994844;28;889;-64
2022/07/30 10:46:02;;;;;;;;;;;;;;;33.89;34.27;99438.91;4994774;28;866;-64
2022/07/30 10:48:31;;;;;;;;;;;;;;;34.03;34.28;99427.97;4994640;28;1914;-64
2022/07/30 10:50:58;;;;;;;;;;;;;;;35.15;33.01;99438.06;4994594;28;815;-63
2022/07/30 10:53:35;;;;;;;;;;;;;;;36.24;31.67;99426.44;4993386;28;843;-63
2022/07/30 11:08:50;;;;;;;;;;;;;;;34.46;34.01;99431.88;4994651;28;1955;-64
2022/07/30 11:11:22;;;;;;;;;;;;;;;35.91;32.17;99432.28;4915360;29;807;-63
2022/07/30 11:13:56;;;;;;;;;;;;;;;37.11;30.96;99429.94;4915274;29;816;-63
2022/07/30 11:16:25;;;;;;;;;;;;;;;38.15;29.17;99408.38;4915265;29;945;-65
2022/07/30 11:19:23;;;;;;;;;;;;;;;38.72;28.60;99423.38;4899403;29;1315;-63
2022/07/30 11:22:10;;;;;;;;;;;;;;;37.96;29.60;99429.28;4915146;29;940;-64
2022/07/30 11:24:46;;;;;;;;;;;;;;;36.57;30.92;99430.63;4914820;29;1214;-65
2022/07/30 11:27:39;;;;;;;;;;;;;;;35.72;32.21;99432.84;4899268;29;1195;-64
2022/07/30 11:30:18;;;;;;;;;;;;;;;34.79;33.14;99426.22;4914661;29;1062;-64
2022/07/30 11:32:45;;;;;;;;;;;;;;;34.32;34.35;99426.38;4914831;29;1364;-64
2022/07/30 11:35:12;;;;;;;;;;;;;;;34.17;34.63;99426.44;4915042;29;1501;-64
2022/07/30 11:37:57;;;;;;;;;;;;;;;34.05;34.51;99423.19;4915019;29;824;-65
2022/07/30 11:40:33;;;;;;;;;;;;;;;34.06;34.53;99416.13;4914756;29;1259;-64
2022/07/30 11:43:18;;;;;;;;;;;;;;;33.93;34.58;99405.63;4985904;28;925;-64
2022/07/30 11:45:45;;;;;;;;;;;;;;;33.61;34.94;99416.94;4993675;28;851;-64
2022/07/30 11:48:14;;;;;;;;;;;;;;;33.31;34.83;99407.00;4976061;28;1918;-64
2022/07/30 11:50:42;;;;;;;;;;;;;;;33.13;35.69;99411.75;4993791;28;862;-64
2022/07/30 11:53:10;;;;;;;;;;;;;;;32.92;36.24;99409.78;4993454;28;867;-64
2022/07/30 11:55:38;;;;;;;;;;;;;;;32.90;36.11;99405.94;4993418;28;878;-64
2022/07/30 11:58:05;;;;;;;;;;;;;;;32.95;35.88;99390.72;4993372;28;827;-64
2022/07/30 12:00:38;;;;;;;;;;;;;;;32.89;35.76;99404.44;4993291;28;776;-65
2022/07/30 12:03:15;;;;;;;;;;;;;;;32.89;35.51;99404.44;4992754;28;878;-64
2022/07/30 12:05:42;;;;;;;;;;;;;;;32.98;35.58;99389.56;4993221;28;830;-64
2022/07/30 12:08:09;;;;;;;;;;;;;;;33.05;35.61;99385.19;4993174;28;1891;-64
2022/07/30 12:10:38;;;;;;;;;;;;;;;32.94;36.29;99401.38;4993173;28;862;-64
2022/07/30 12:13:08;;;;;;;;;;;;;;;33.54;35.49;99387.72;4993100;28;917;-64
2022/07/30 12:15:39;;;;;;;;;;;;;;;36.03;33.63;99392.31;4992992;28;788;-64
2022/07/30 12:18:06;;;;;;;;;;;;;;;37.87;33.11;99368.72;4992988;28;879;-64
2022/07/30 12:20:33;;;;;;;;;;;;;;;38.86;31.53;99357.22;4993023;28;866;-65
2022/07/30 12:26:03;;;;;;;;;;;;;;;37.59;28.77;99380.34;4993004;28;621;-65
2022/07/30 12:28:32;;;;;;;;;;;;;;;38.63;27.52;99365.66;4992814;28;1891;-64
2022/07/30 12:30:59;;;;;;;;;;;;;;;39.66;25.96;99373.56;4992726;28;807;-63
2022/07/30 12:33:25;;;;;;;;;;;;;;;40.29;24.59;99357.59;4992799;28;1197;-65
2022/07/30 12:35:57;;;;;;;;;;;;;;;41.06;24.11;99355.22;4992808;28;814;-66
2022/07/30 12:38:41;;;;;;;;;;;;;;;41.16;25.78;99358.00;4992668;28;878;-65
2022/07/30 12:53:27;;;;;;;;;;;;;;;38.55;30.64;99336.94;4992851;28;810;-64
2022/07/30 12:56:10;;;;;;;;;;;;;;;37.16;32.13;99335.94;4992427;28;847;-64
2022/07/30 12:58:37;;;;;;;;;;;;;;;36.42;33.63;99335.84;4992404;28;819;-64
2022/07/30 13:01:03;;;;;;;;;;;;;;;37.05;32.29;99325.72;4992303;28;882;-64
2022/07/30 13:03:39;;;;;;;;;;;;;;;37.62;31.55;99317.88;4992477;28;865;-66
2022/07/30 13:06:14;;;;;;;;;;;;;;;36.93;32.08;99325.53;4992564;28;807;-66
2022/07/30 13:08:50;;;;;;;;;;;;;;;36.13;33.65;99315.53;4974608;28;1898;-64
2022/07/30 13:11:17;;;;;;;;;;;;;;;36.41;34.48;99322.81;4992511;28;870;-63
2022/07/30 13:13:45;;;;;;;;;;;;;;;36.75;31.52;99309.69;4992236;28;835;-64
2022/07/30 13:16:12;;;;;;;;;;;;;;;35.49;33.48;99309.50;4973921;28;1218;-64
2022/07/30 13:18:40;;;;;;;;;;;;;;;34.80;36.05;99310.06;4992309;28;917;-64
2022/07/30 13:24:13;;;;;;;;;;;;;;;37.49;31.24;99283.69;4992258;28;609;-64
2022/07/30 13:26:39;;;;;;;;;;;;;;;38.23;30.39;99281.25;4992136;28;787;-63
2022/07/30 13:29:06;;;;;;;;;;;;;;;38.34;30.03;99295.03;4992050;28;1951;-64
2022/07/30 13:31:33;;;;;;;;;;;;;;;38.60;29.86;99292.56;4991916;28;841;-65
2022/07/30 13:34:18;;;;;;;;;;;;;;;38.42;29.40;99294.88;4992052;28;1486;-65
2022/07/30 13:36:45;;;;;;;;;;;;;;;38.14;29.37;99282.78;4992043;28;843;-66
2022/07/30 13:39:12;;;;;;;;;;;;;;;37.75;30.00;99284.94;4991976;28;811;-64
2022/07/30 13:41:41;;;;;;;;;;;;;;;37.45;30.52;99277.59;4992331;28;887;-66
2022/07/30 13:44:10;;;;;;;;;;;;;;;37.03;31.06;99287.38;4991927;28;795;-65
2022/07/30 13:58:47;;;;;;;;;;;;;;;38.26;28.33;99285.03;4992159;28;609;-65
2022/07/30 14:01:13;;;;;;;;;;;;;;;38.10;29.15;99270.22;4991685;28;862;-63
2022/07/30 14:03:39;;;;;;;;;;;;;;;37.61;30.17;99278.13;4991808;28;827;-64
2022/07/30 14:18:20;;;;;;;;;;;;;;;36.19;32.17;99270.00;4992286;28;641;-65
2022/07/30 14:20:48;;;;;;;;;;;;;;;36.03;32.28;99269.41;4991756;28;877;-64
2022/07/30 14:23:34;;;;;;;;;;;;;;;36.23;32.44;99263.81;4991533;28;1088;-64
2022/07/30 14:26:01;;;;;;;;;;;;;;;36.21;32.17;99266.53;4991947;28;885;-63
2022/07/30 14:28:47;;;;;;;;;;;;;;;35.88;32.12;99272.50;4995227;28;1965;-64
2022/07/30 14:31:15;;;;;;;;;;;;;;;35.57;33.18;99261.31;4995460;28;886;-64
2022/07/30 14:33:46;;;;;;;;;;;;;;;35.46;33.51;99279.06;4995277;28;1206;-63
2022/07/30 14:36:13;;;;;;;;;;;;;;;35.48;33.86;99271.38;4977479;28;1332;-64
2022/07/30 14:38:58;;;;;;;;;;;;;;;35.27;34.39;99268.94;4994942;28;877;-64
2022/07/30 14:41:27;;;;;;;;;;;;;;;34.66;34.43;99261.56;4994997;28;862;-64
2022/07/30 14:43:54;;;;;;;;;;;;;;;34.39;35.28;99254.84;4977336;28;1293;-64